sensor_id;sensor_type;location;lat;lon;timestamp;P1;durP1;ratioP1;P2;durP2;ratioP2
2792;SDS011;1404;49.650;8.574;2022-07-06T00:01:24;4.00;;;3.13;;
2792;SDS011;1404;49.650;8.574;2022-07-06T00:03:50;5.60;;;4.07;;
2792;SDS011;1404;49.650;8.574;2022-07-06T00:06:16;6.87;;;3.70;;
2792;SDS011;1404;49.650;8.574;2022-07-06T00:08:43;6.57;;;3.27;;
2792;SDS011;1404;49.650;8.574;2022-07-06T00:11:09;4.70;;;3.10;;
2792;SDS011;1404;49.650;8.574;2022-07-06T00:13:35;4.30;;;3.47;;
2792;SDS011;1404;49.650;8.574;2022-07-06T00:16:01;3.83;;;3.43;;
2792;SDS011;1404;49.650;8.574;2022-07-06T00:18:28;5.93;;;3.40;;
2792;SDS011;1404;49.650;8.574;2022-07-06T00:20:54;7.53;;;3.50;;
2792;SDS011;1404;49.650;8.574;2022-07-06T00:23:20;4.53;;;3.27;;
2792;SDS011;1404;49.650;8.574;2022-07-06T00:25:46;4.13;;;3.70;;
2792;SDS011;1404;49.650;8.574;2022-07-06T00:28:13;6.30;;;3.53;;
2792;SDS011;1404;49.650;8.574;2022-07-06T00:30:39;3.97;;;3.67;;
2792;SDS011;1404;49.650;8.574;2022-07-06T00:33:05;4.93;;;3.13;;
2792;SDS011;1404;49.650;8.574;2022-07-06T00:35:31;6.20;;;4.93;;
2792;SDS011;1404;49.650;8.574;2022-07-06T00:37:58;4.03;;;3.47;;
2792;SDS011;1404;49.650;8.574;2022-07-06T00:40:24;8.27;;;3.90;;
2792;SDS011;1404;49.650;8.574;2022-07-06T00:42:50;4.03;;;3.07;;
2792;SDS011;1404;49.650;8.574;2022-07-06T00:45:16;6.43;;;4.40;;
2792;SDS011;1404;49.650;8.574;2022-07-06T00:47:43;5.17;;;4.03;;
2792;SDS011;1404;49.650;8.574;2022-07-06T00:50:10;5.63;;;4.27;;
2792;SDS011;1404;49.650;8.574;2022-07-06T00:52:39;4.20;;;3.57;;
2792;SDS011;1404;49.650;8.574;2022-07-06T00:55:06;4.07;;;3.73;;
2792;SDS011;1404;49.650;8.574;2022-07-06T00:57:32;6.33;;;4.20;;
2792;SDS011;1404;49.650;8.574;2022-07-06T00:59:58;7.73;;;3.80;;
2792;SDS011;1404;49.650;8.574;2022-07-06T01:02:24;5.33;;;3.73;;
2792;SDS011;1404;49.650;8.574;2022-07-06T01:04:50;9.70;;;4.77;;
2792;SDS011;1404;49.650;8.574;2022-07-06T01:07:16;8.93;;;4.30;;
2792;SDS011;1404;49.650;8.574;2022-07-06T01:09:42;8.67;;;4.23;;
2792;SDS011;1404;49.650;8.574;2022-07-06T01:12:09;4.97;;;4.57;;
2792;SDS011;1404;49.650;8.574;2022-07-06T01:14:35;4.53;;;4.20;;
2792;SDS011;1404;49.650;8.574;2022-07-06T01:17:02;12.47;;;4.07;;
2792;SDS011;1404;49.650;8.574;2022-07-06T01:19:28;6.17;;;4.53;;
2792;SDS011;1404;49.650;8.574;2022-07-06T01:21:54;5.73;;;4.53;;
2792;SDS011;1404;49.650;8.574;2022-07-06T01:24:21;6.37;;;5.00;;
2792;SDS011;1404;49.650;8.574;2022-07-06T01:26:47;5.70;;;5.10;;
2792;SDS011;1404;49.650;8.574;2022-07-06T01:29:13;6.43;;;5.10;;
2792;SDS011;1404;49.650;8.574;2022-07-06T01:31:49;4.00;;;3.60;;
2792;SDS011;1404;49.650;8.574;2022-07-06T01:34:16;7.83;;;4.57;;
2792;SDS011;1404;49.650;8.574;2022-07-06T01:36:42;7.50;;;4.03;;
2792;SDS011;1404;49.650;8.574;2022-07-06T01:39:09;5.83;;;4.77;;
2792;SDS011;1404;49.650;8.574;2022-07-06T01:41:35;5.10;;;4.70;;
2792;SDS011;1404;49.650;8.574;2022-07-06T01:44:01;8.33;;;6.10;;
2792;SDS011;1404;49.650;8.574;2022-07-06T01:46:27;6.53;;;4.13;;
2792;SDS011;1404;49.650;8.574;2022-07-06T01:48:53;5.83;;;4.77;;
2792;SDS011;1404;49.650;8.574;2022-07-06T01:51:20;5.27;;;4.77;;
2792;SDS011;1404;49.650;8.574;2022-07-06T01:53:46;8.63;;;4.90;;
2792;SDS011;1404;49.650;8.574;2022-07-06T01:56:12;4.60;;;4.20;;
2792;SDS011;1404;49.650;8.574;2022-07-06T01:58:38;6.70;;;6.10;;
2792;SDS011;1404;49.650;8.574;2022-07-06T02:01:08;6.60;;;4.60;;
2792;SDS011;1404;49.650;8.574;2022-07-06T02:03:34;6.23;;;5.57;;
2792;SDS011;1404;49.650;8.574;2022-07-06T02:06:00;10.50;;;5.40;;
2792;SDS011;1404;49.650;8.574;2022-07-06T02:08:26;10.13;;;4.70;;
2792;SDS011;1404;49.650;8.574;2022-07-06T02:10:52;6.20;;;5.10;;
2792;SDS011;1404;49.650;8.574;2022-07-06T02:13:18;6.00;;;4.67;;
2792;SDS011;1404;49.650;8.574;2022-07-06T02:15:44;8.90;;;4.70;;
2792;SDS011;1404;49.650;8.574;2022-07-06T02:18:10;5.70;;;4.80;;
2792;SDS011;1404;49.650;8.574;2022-07-06T02:20:36;4.80;;;4.27;;
2792;SDS011;1404;49.650;8.574;2022-07-06T02:23:02;5.23;;;4.73;;
2792;SDS011;1404;49.650;8.574;2022-07-06T02:25:28;5.27;;;4.80;;
2792;SDS011;1404;49.650;8.574;2022-07-06T02:27:55;6.60;;;4.60;;
2792;SDS011;1404;49.650;8.574;2022-07-06T02:30:21;6.33;;;4.20;;
2792;SDS011;1404;49.650;8.574;2022-07-06T02:32:47;6.33;;;4.77;;
2792;SDS011;1404;49.650;8.574;2022-07-06T02:35:13;5.47;;;4.67;;
2792;SDS011;1404;49.650;8.574;2022-07-06T02:37:39;6.67;;;5.03;;
2792;SDS011;1404;49.650;8.574;2022-07-06T02:40:05;5.20;;;4.70;;
2792;SDS011;1404;49.650;8.574;2022-07-06T02:42:31;6.23;;;5.43;;
2792;SDS011;1404;49.650;8.574;2022-07-06T02:44:57;5.40;;;5.00;;
2792;SDS011;1404;49.650;8.574;2022-07-06T02:47:23;7.63;;;4.53;;
2792;SDS011;1404;49.650;8.574;2022-07-06T02:49:51;5.73;;;4.97;;
2792;SDS011;1404;49.650;8.574;2022-07-06T02:52:17;11.30;;;5.17;;
2792;SDS011;1404;49.650;8.574;2022-07-06T02:54:43;5.53;;;5.03;;
2792;SDS011;1404;49.650;8.574;2022-07-06T02:57:10;5.73;;;5.10;;
2792;SDS011;1404;49.650;8.574;2022-07-06T02:59:36;8.23;;;4.63;;
2792;SDS011;1404;49.650;8.574;2022-07-06T03:02:05;6.30;;;4.60;;
2792;SDS011;1404;49.650;8.574;2022-07-06T03:04:31;6.33;;;4.97;;
2792;SDS011;1404;49.650;8.574;2022-07-06T03:06:57;8.77;;;4.50;;
2792;SDS011;1404;49.650;8.574;2022-07-06T03:09:23;8.13;;;4.77;;
2792;SDS011;1404;49.650;8.574;2022-07-06T03:11:49;10.60;;;5.10;;
2792;SDS011;1404;49.650;8.574;2022-07-06T03:14:15;8.50;;;5.20;;
2792;SDS011;1404;49.650;8.574;2022-07-06T03:16:41;5.33;;;4.87;;
2792;SDS011;1404;49.650;8.574;2022-07-06T03:19:07;5.43;;;4.93;;
2792;SDS011;1404;49.650;8.574;2022-07-06T03:21:33;5.23;;;4.60;;
2792;SDS011;1404;49.650;8.574;2022-07-06T03:23:59;7.93;;;4.37;;
2792;SDS011;1404;49.650;8.574;2022-07-06T03:26:25;7.17;;;4.03;;
2792;SDS011;1404;49.650;8.574;2022-07-06T03:28:51;6.50;;;4.13;;
2792;SDS011;1404;49.650;8.574;2022-07-06T03:31:17;5.37;;;4.27;;
2792;SDS011;1404;49.650;8.574;2022-07-06T03:33:43;11.13;;;5.17;;
2792;SDS011;1404;49.650;8.574;2022-07-06T03:36:09;10.23;;;4.73;;
2792;SDS011;1404;49.650;8.574;2022-07-06T03:38:35;4.37;;;3.90;;
2792;SDS011;1404;49.650;8.574;2022-07-06T03:41:01;6.93;;;4.50;;
2792;SDS011;1404;49.650;8.574;2022-07-06T03:43:27;6.90;;;4.50;;
2792;SDS011;1404;49.650;8.574;2022-07-06T03:45:53;12.27;;;5.13;;
2792;SDS011;1404;49.650;8.574;2022-07-06T03:48:19;6.13;;;4.43;;
2792;SDS011;1404;49.650;8.574;2022-07-06T03:50:45;8.63;;;4.70;;
2792;SDS011;1404;49.650;8.574;2022-07-06T03:53:11;5.40;;;4.13;;
2792;SDS011;1404;49.650;8.574;2022-07-06T03:55:37;9.10;;;5.13;;
2792;SDS011;1404;49.650;8.574;2022-07-06T03:58:03;6.10;;;5.17;;
2792;SDS011;1404;49.650;8.574;2022-07-06T04:00:30;6.13;;;3.50;;
2792;SDS011;1404;49.650;8.574;2022-07-06T04:02:56;5.80;;;4.37;;
2792;SDS011;1404;49.650;8.574;2022-07-06T04:05:22;4.63;;;4.00;;
2792;SDS011;1404;49.650;8.574;2022-07-06T04:07:48;6.83;;;4.07;;
2792;SDS011;1404;49.650;8.574;2022-07-06T04:10:15;5.63;;;4.50;;
2792;SDS011;1404;49.650;8.574;2022-07-06T04:12:41;5.30;;;3.90;;
2792;SDS011;1404;49.650;8.574;2022-07-06T04:15:07;6.33;;;4.27;;
2792;SDS011;1404;49.650;8.574;2022-07-06T04:17:34;5.20;;;4.63;;
2792;SDS011;1404;49.650;8.574;2022-07-06T04:20:19;6.03;;;4.07;;
2792;SDS011;1404;49.650;8.574;2022-07-06T04:22:45;5.17;;;4.67;;
2792;SDS011;1404;49.650;8.574;2022-07-06T04:25:11;5.03;;;3.80;;
2792;SDS011;1404;49.650;8.574;2022-07-06T04:27:37;4.10;;;3.70;;
2792;SDS011;1404;49.650;8.574;2022-07-06T04:30:03;6.40;;;3.90;;
2792;SDS011;1404;49.650;8.574;2022-07-06T04:32:29;4.57;;;3.63;;
2792;SDS011;1404;49.650;8.574;2022-07-06T04:34:55;4.03;;;3.50;;
2792;SDS011;1404;49.650;8.574;2022-07-06T04:37:22;3.53;;;2.77;;
2792;SDS011;1404;49.650;8.574;2022-07-06T04:39:48;6.80;;;3.70;;
2792;SDS011;1404;49.650;8.574;2022-07-06T04:42:14;8.03;;;3.73;;
2792;SDS011;1404;49.650;8.574;2022-07-06T04:44:40;10.83;;;4.03;;
2792;SDS011;1404;49.650;8.574;2022-07-06T04:47:06;3.27;;;2.90;;
2792;SDS011;1404;49.650;8.574;2022-07-06T04:49:32;5.37;;;3.30;;
2792;SDS011;1404;49.650;8.574;2022-07-06T04:51:58;3.93;;;3.00;;
2792;SDS011;1404;49.650;8.574;2022-07-06T04:54:24;5.43;;;3.10;;
2792;SDS011;1404;49.650;8.574;2022-07-06T04:56:50;3.20;;;2.80;;
2792;SDS011;1404;49.650;8.574;2022-07-06T04:59:16;5.17;;;3.10;;
2792;SDS011;1404;49.650;8.574;2022-07-06T05:01:42;4.60;;;3.40;;
2792;SDS011;1404;49.650;8.574;2022-07-06T05:04:08;6.10;;;3.20;;
2792;SDS011;1404;49.650;8.574;2022-07-06T05:06:34;4.27;;;3.20;;
2792;SDS011;1404;49.650;8.574;2022-07-06T05:09:00;5.53;;;3.60;;
2792;SDS011;1404;49.650;8.574;2022-07-06T05:11:27;3.93;;;3.63;;
2792;SDS011;1404;49.650;8.574;2022-07-06T05:13:53;4.73;;;3.33;;
2792;SDS011;1404;49.650;8.574;2022-07-06T05:16:20;6.43;;;3.20;;
2792;SDS011;1404;49.650;8.574;2022-07-06T05:18:46;6.00;;;3.57;;
2792;SDS011;1404;49.650;8.574;2022-07-06T05:21:12;4.90;;;3.97;;
2792;SDS011;1404;49.650;8.574;2022-07-06T05:23:38;9.00;;;3.70;;
2792;SDS011;1404;49.650;8.574;2022-07-06T05:26:04;3.60;;;3.17;;
2792;SDS011;1404;49.650;8.574;2022-07-06T05:28:30;8.43;;;4.37;;
2792;SDS011;1404;49.650;8.574;2022-07-06T05:30:56;7.07;;;4.43;;
2792;SDS011;1404;49.650;8.574;2022-07-06T05:33:22;9.87;;;4.40;;
2792;SDS011;1404;49.650;8.574;2022-07-06T05:35:48;11.10;;;4.40;;
2792;SDS011;1404;49.650;8.574;2022-07-06T05:38:15;12.33;;;5.77;;
2792;SDS011;1404;49.650;8.574;2022-07-06T05:40:41;7.50;;;5.73;;
2792;SDS011;1404;49.650;8.574;2022-07-06T05:43:07;7.40;;;4.80;;
2792;SDS011;1404;49.650;8.574;2022-07-06T05:45:33;9.97;;;4.97;;
2792;SDS011;1404;49.650;8.574;2022-07-06T05:47:59;6.67;;;5.10;;
2792;SDS011;1404;49.650;8.574;2022-07-06T05:50:43;6.67;;;4.47;;
2792;SDS011;1404;49.650;8.574;2022-07-06T05:53:09;9.30;;;5.87;;
2792;SDS011;1404;49.650;8.574;2022-07-06T05:55:35;4.77;;;4.20;;
2792;SDS011;1404;49.650;8.574;2022-07-06T05:58:01;6.07;;;4.60;;
2792;SDS011;1404;49.650;8.574;2022-07-06T06:00:27;7.60;;;5.30;;
2792;SDS011;1404;49.650;8.574;2022-07-06T06:02:54;6.50;;;3.87;;
2792;SDS011;1404;49.650;8.574;2022-07-06T06:05:20;5.90;;;4.73;;
2792;SDS011;1404;49.650;8.574;2022-07-06T06:07:46;8.93;;;5.00;;
2792;SDS011;1404;49.650;8.574;2022-07-06T06:10:14;8.07;;;4.43;;
2792;SDS011;1404;49.650;8.574;2022-07-06T06:12:40;9.30;;;4.30;;
2792;SDS011;1404;49.650;8.574;2022-07-06T06:15:08;6.83;;;3.90;;
2792;SDS011;1404;49.650;8.574;2022-07-06T06:17:35;7.93;;;4.90;;
2792;SDS011;1404;49.650;8.574;2022-07-06T06:20:02;10.33;;;5.40;;
2792;SDS011;1404;49.650;8.574;2022-07-06T06:22:28;4.87;;;4.37;;
2792;SDS011;1404;49.650;8.574;2022-07-06T06:24:54;14.47;;;5.63;;
2792;SDS011;1404;49.650;8.574;2022-07-06T06:27:20;6.83;;;6.00;;
2792;SDS011;1404;49.650;8.574;2022-07-06T06:29:47;13.90;;;5.57;;
2792;SDS011;1404;49.650;8.574;2022-07-06T06:32:13;9.37;;;5.07;;
2792;SDS011;1404;49.650;8.574;2022-07-06T06:34:39;5.90;;;4.93;;
2792;SDS011;1404;49.650;8.574;2022-07-06T06:37:06;6.73;;;5.30;;
2792;SDS011;1404;49.650;8.574;2022-07-06T06:39:32;4.93;;;4.30;;
2792;SDS011;1404;49.650;8.574;2022-07-06T06:41:58;6.70;;;5.47;;
2792;SDS011;1404;49.650;8.574;2022-07-06T06:44:24;6.17;;;4.97;;
2792;SDS011;1404;49.650;8.574;2022-07-06T06:46:50;7.73;;;4.40;;
2792;SDS011;1404;49.650;8.574;2022-07-06T06:49:19;11.73;;;4.73;;
2792;SDS011;1404;49.650;8.574;2022-07-06T06:51:45;5.53;;;4.93;;
2792;SDS011;1404;49.650;8.574;2022-07-06T06:54:11;7.80;;;4.70;;
2792;SDS011;1404;49.650;8.574;2022-07-06T06:56:37;9.93;;;5.40;;
2792;SDS011;1404;49.650;8.574;2022-07-06T06:59:03;7.17;;;4.47;;
2792;SDS011;1404;49.650;8.574;2022-07-06T07:01:29;9.67;;;5.60;;
2792;SDS011;1404;49.650;8.574;2022-07-06T07:03:57;5.23;;;4.70;;
2792;SDS011;1404;49.650;8.574;2022-07-06T07:06:23;8.33;;;4.90;;
2792;SDS011;1404;49.650;8.574;2022-07-06T07:08:49;5.50;;;4.87;;
2792;SDS011;1404;49.650;8.574;2022-07-06T07:11:16;8.70;;;5.10;;
2792;SDS011;1404;49.650;8.574;2022-07-06T07:13:42;7.17;;;5.40;;
2792;SDS011;1404;49.650;8.574;2022-07-06T07:16:08;8.60;;;5.73;;
2792;SDS011;1404;49.650;8.574;2022-07-06T07:18:34;8.67;;;5.07;;
2792;SDS011;1404;49.650;8.574;2022-07-06T07:21:00;5.70;;;4.17;;
2792;SDS011;1404;49.650;8.574;2022-07-06T07:23:26;9.00;;;4.57;;
2792;SDS011;1404;49.650;8.574;2022-07-06T07:25:52;4.97;;;4.50;;
2792;SDS011;1404;49.650;8.574;2022-07-06T07:28:18;7.30;;;4.60;;
2792;SDS011;1404;49.650;8.574;2022-07-06T07:30:44;7.03;;;4.80;;
2792;SDS011;1404;49.650;8.574;2022-07-06T07:33:10;6.37;;;5.20;;
2792;SDS011;1404;49.650;8.574;2022-07-06T07:35:36;13.57;;;5.60;;
2792;SDS011;1404;49.650;8.574;2022-07-06T07:38:04;10.20;;;5.87;;
2792;SDS011;1404;49.650;8.574;2022-07-06T07:40:30;7.37;;;4.60;;
2792;SDS011;1404;49.650;8.574;2022-07-06T07:42:56;9.70;;;5.83;;
2792;SDS011;1404;49.650;8.574;2022-07-06T07:45:22;8.70;;;5.40;;
2792;SDS011;1404;49.650;8.574;2022-07-06T07:47:48;9.40;;;5.80;;
2792;SDS011;1404;49.650;8.574;2022-07-06T07:50:14;6.43;;;5.10;;
2792;SDS011;1404;49.650;8.574;2022-07-06T07:52:40;7.47;;;5.20;;
2792;SDS011;1404;49.650;8.574;2022-07-06T07:55:06;6.70;;;5.23;;
2792;SDS011;1404;49.650;8.574;2022-07-06T07:57:32;6.40;;;4.90;;
2792;SDS011;1404;49.650;8.574;2022-07-06T07:59:58;5.60;;;4.60;;
2792;SDS011;1404;49.650;8.574;2022-07-06T08:02:24;9.97;;;5.23;;
2792;SDS011;1404;49.650;8.574;2022-07-06T08:04:50;10.93;;;5.30;;
2792;SDS011;1404;49.650;8.574;2022-07-06T08:07:16;5.07;;;4.57;;
2792;SDS011;1404;49.650;8.574;2022-07-06T08:09:42;9.53;;;4.87;;
2792;SDS011;1404;49.650;8.574;2022-07-06T08:12:08;6.80;;;5.13;;
2792;SDS011;1404;49.650;8.574;2022-07-06T08:14:34;5.63;;;5.00;;
2792;SDS011;1404;49.650;8.574;2022-07-06T08:17:02;6.97;;;4.70;;
2792;SDS011;1404;49.650;8.574;2022-07-06T08:19:28;5.50;;;5.00;;
2792;SDS011;1404;49.650;8.574;2022-07-06T08:21:55;13.57;;;4.43;;
2792;SDS011;1404;49.650;8.574;2022-07-06T08:24:21;5.57;;;4.50;;
2792;SDS011;1404;49.650;8.574;2022-07-06T08:26:47;9.20;;;5.03;;
2792;SDS011;1404;49.650;8.574;2022-07-06T08:29:13;8.20;;;5.40;;
2792;SDS011;1404;49.650;8.574;2022-07-06T08:31:39;8.63;;;5.10;;
2792;SDS011;1404;49.650;8.574;2022-07-06T08:34:06;12.03;;;4.70;;
2792;SDS011;1404;49.650;8.574;2022-07-06T08:36:32;5.43;;;4.53;;
2792;SDS011;1404;49.650;8.574;2022-07-06T08:38:58;10.43;;;4.83;;
2792;SDS011;1404;49.650;8.574;2022-07-06T08:41:28;5.43;;;4.87;;
2792;SDS011;1404;49.650;8.574;2022-07-06T08:43:55;6.30;;;4.90;;
2792;SDS011;1404;49.650;8.574;2022-07-06T08:46:21;6.53;;;3.87;;
2792;SDS011;1404;49.650;8.574;2022-07-06T08:48:47;9.07;;;3.80;;
2792;SDS011;1404;49.650;8.574;2022-07-06T08:51:14;4.70;;;4.30;;
2792;SDS011;1404;49.650;8.574;2022-07-06T08:53:41;9.07;;;4.30;;
2792;SDS011;1404;49.650;8.574;2022-07-06T08:56:08;5.43;;;4.23;;
2792;SDS011;1404;49.650;8.574;2022-07-06T08:58:34;5.43;;;4.03;;
2792;SDS011;1404;49.650;8.574;2022-07-06T09:01:00;6.30;;;3.23;;
2792;SDS011;1404;49.650;8.574;2022-07-06T09:03:27;4.83;;;3.57;;
2792;SDS011;1404;49.650;8.574;2022-07-06T09:05:53;5.63;;;3.50;;
2792;SDS011;1404;49.650;8.574;2022-07-06T09:08:22;8.23;;;3.33;;
2792;SDS011;1404;49.650;8.574;2022-07-06T09:10:48;5.10;;;3.80;;
2792;SDS011;1404;49.650;8.574;2022-07-06T09:13:14;5.23;;;3.77;;
2792;SDS011;1404;49.650;8.574;2022-07-06T09:15:40;5.63;;;4.57;;
2792;SDS011;1404;49.650;8.574;2022-07-06T09:18:07;7.20;;;4.30;;
2792;SDS011;1404;49.650;8.574;2022-07-06T09:20:33;5.60;;;4.03;;
2792;SDS011;1404;49.650;8.574;2022-07-06T09:23:00;10.73;;;3.80;;
2792;SDS011;1404;49.650;8.574;2022-07-06T09:25:27;5.63;;;3.23;;
2792;SDS011;1404;49.650;8.574;2022-07-06T09:27:53;3.90;;;3.30;;
2792;SDS011;1404;49.650;8.574;2022-07-06T09:30:21;7.57;;;4.07;;
2792;SDS011;1404;49.650;8.574;2022-07-06T09:32:51;11.57;;;3.30;;
2792;SDS011;1404;49.650;8.574;2022-07-06T09:35:21;6.67;;;3.70;;
2792;SDS011;1404;49.650;8.574;2022-07-06T09:37:58;3.87;;;2.97;;
2792;SDS011;1404;49.650;8.574;2022-07-06T09:40:25;6.57;;;4.07;;
2792;SDS011;1404;49.650;8.574;2022-07-06T09:42:51;7.97;;;3.17;;
2792;SDS011;1404;49.650;8.574;2022-07-06T09:45:22;6.93;;;3.40;;
2792;SDS011;1404;49.650;8.574;2022-07-06T09:47:48;12.03;;;3.93;;
2792;SDS011;1404;49.650;8.574;2022-07-06T09:50:17;3.50;;;2.50;;
2792;SDS011;1404;49.650;8.574;2022-07-06T09:52:52;8.87;;;3.50;;
2792;SDS011;1404;49.650;8.574;2022-07-06T09:55:19;3.33;;;2.90;;
2792;SDS011;1404;49.650;8.574;2022-07-06T09:57:53;3.43;;;2.90;;
2792;SDS011;1404;49.650;8.574;2022-07-06T10:00:22;10.10;;;3.20;;
2792;SDS011;1404;49.650;8.574;2022-07-06T10:02:49;9.53;;;3.77;;
2792;SDS011;1404;49.650;8.574;2022-07-06T10:05:16;9.23;;;4.13;;
2792;SDS011;1404;49.650;8.574;2022-07-06T10:07:45;4.50;;;3.50;;
2792;SDS011;1404;49.650;8.574;2022-07-06T10:10:14;3.83;;;3.23;;
2792;SDS011;1404;49.650;8.574;2022-07-06T10:12:42;2.70;;;2.50;;
2792;SDS011;1404;49.650;8.574;2022-07-06T10:15:08;4.63;;;4.10;;
2792;SDS011;1404;49.650;8.574;2022-07-06T10:17:34;4.57;;;3.90;;
2792;SDS011;1404;49.650;8.574;2022-07-06T10:20:01;5.33;;;3.50;;
2792;SDS011;1404;49.650;8.574;2022-07-06T10:22:27;5.00;;;2.93;;
2792;SDS011;1404;49.650;8.574;2022-07-06T10:24:53;8.17;;;3.30;;
2792;SDS011;1404;49.650;8.574;2022-07-06T10:27:23;3.77;;;3.00;;
2792;SDS011;1404;49.650;8.574;2022-07-06T10:29:50;6.33;;;3.90;;
2792;SDS011;1404;49.650;8.574;2022-07-06T10:32:18;5.60;;;3.10;;
2792;SDS011;1404;49.650;8.574;2022-07-06T10:34:45;4.27;;;3.30;;
2792;SDS011;1404;49.650;8.574;2022-07-06T10:37:24;5.20;;;2.53;;
2792;SDS011;1404;49.650;8.574;2022-07-06T10:39:51;5.60;;;3.17;;
2792;SDS011;1404;49.650;8.574;2022-07-06T10:45:10;5.07;;;3.17;;
2792;SDS011;1404;49.650;8.574;2022-07-06T10:47:36;3.83;;;3.03;;
2792;SDS011;1404;49.650;8.574;2022-07-06T10:50:03;2.93;;;1.90;;
2792;SDS011;1404;49.650;8.574;2022-07-06T10:53:12;3.20;;;2.57;;
2792;SDS011;1404;49.650;8.574;2022-07-06T10:55:39;4.20;;;3.43;;
2792;SDS011;1404;49.650;8.574;2022-07-06T10:58:05;4.20;;;2.30;;
2792;SDS011;1404;49.650;8.574;2022-07-06T11:05:58;3.40;;;2.40;;
2792;SDS011;1404;49.650;8.574;2022-07-06T11:08:43;4.80;;;2.80;;
2792;SDS011;1404;49.650;8.574;2022-07-06T11:11:13;3.73;;;2.43;;
2792;SDS011;1404;49.650;8.574;2022-07-06T11:13:42;2.60;;;2.40;;
2792;SDS011;1404;49.650;8.574;2022-07-06T11:16:08;4.47;;;2.40;;
2792;SDS011;1404;49.650;8.574;2022-07-06T11:18:41;2.90;;;2.10;;
2792;SDS011;1404;49.650;8.574;2022-07-06T11:23:42;2.03;;;1.80;;
2792;SDS011;1404;49.650;8.574;2022-07-06T11:26:09;3.60;;;1.80;;
2792;SDS011;1404;49.650;8.574;2022-07-06T11:28:36;3.83;;;2.03;;
2792;SDS011;1404;49.650;8.574;2022-07-06T11:31:02;3.00;;;1.83;;
2792;SDS011;1404;49.650;8.574;2022-07-06T11:33:29;2.83;;;1.40;;
2792;SDS011;1404;49.650;8.574;2022-07-06T11:38:57;3.63;;;1.70;;
2792;SDS011;1404;49.650;8.574;2022-07-06T11:41:23;3.17;;;1.90;;
2792;SDS011;1404;49.650;8.574;2022-07-06T11:43:49;5.27;;;2.30;;
2792;SDS011;1404;49.650;8.574;2022-07-06T11:46:20;3.00;;;1.70;;
2792;SDS011;1404;49.650;8.574;2022-07-06T11:48:47;3.07;;;1.90;;
2792;SDS011;1404;49.650;8.574;2022-07-06T11:51:14;1.77;;;1.67;;
2792;SDS011;1404;49.650;8.574;2022-07-06T11:53:47;13.83;;;2.17;;
2792;SDS011;1404;49.650;8.574;2022-07-06T11:56:16;6.00;;;2.00;;
2792;SDS011;1404;49.650;8.574;2022-07-06T11:58:44;2.23;;;2.03;;
2792;SDS011;1404;49.650;8.574;2022-07-06T12:01:12;1.77;;;1.60;;
2792;SDS011;1404;49.650;8.574;2022-07-06T12:03:39;2.97;;;2.30;;
2792;SDS011;1404;49.650;8.574;2022-07-06T12:06:06;1.63;;;1.53;;
2792;SDS011;1404;49.650;8.574;2022-07-06T12:08:40;4.40;;;1.83;;
2792;SDS011;1404;49.650;8.574;2022-07-06T12:11:06;2.67;;;1.53;;
2792;SDS011;1404;49.650;8.574;2022-07-06T12:13:36;3.60;;;2.33;;
2792;SDS011;1404;49.650;8.574;2022-07-06T12:16:11;4.47;;;1.97;;
2792;SDS011;1404;49.650;8.574;2022-07-06T12:18:41;4.10;;;1.97;;
2792;SDS011;1404;49.650;8.574;2022-07-06T12:21:08;2.63;;;2.43;;
2792;SDS011;1404;49.650;8.574;2022-07-06T12:23:38;2.73;;;2.17;;
2792;SDS011;1404;49.650;8.574;2022-07-06T12:26:04;2.43;;;1.90;;
2792;SDS011;1404;49.650;8.574;2022-07-06T12:28:30;2.50;;;2.30;;
2792;SDS011;1404;49.650;8.574;2022-07-06T12:30:56;3.47;;;3.17;;
2792;SDS011;1404;49.650;8.574;2022-07-06T12:33:22;10.30;;;3.30;;
2792;SDS011;1404;49.650;8.574;2022-07-06T12:35:48;4.43;;;2.80;;
2792;SDS011;1404;49.650;8.574;2022-07-06T12:38:22;3.10;;;2.80;;
2792;SDS011;1404;49.650;8.574;2022-07-06T12:40:48;3.43;;;2.87;;
2792;SDS011;1404;49.650;8.574;2022-07-06T12:43:14;4.40;;;2.87;;
2792;SDS011;1404;49.650;8.574;2022-07-06T12:45:59;3.33;;;3.03;;
2792;SDS011;1404;49.650;8.574;2022-07-06T12:48:25;3.23;;;2.90;;
2792;SDS011;1404;49.650;8.574;2022-07-06T12:50:52;8.47;;;3.17;;
2792;SDS011;1404;49.650;8.574;2022-07-06T12:53:25;5.43;;;2.73;;
2792;SDS011;1404;49.650;8.574;2022-07-06T12:56:07;3.10;;;2.80;;
2792;SDS011;1404;49.650;8.574;2022-07-06T12:58:33;4.07;;;3.67;;
2792;SDS011;1404;49.650;8.574;2022-07-06T13:00:59;3.23;;;2.93;;
2792;SDS011;1404;49.650;8.574;2022-07-06T13:03:26;6.90;;;3.80;;
2792;SDS011;1404;49.650;8.574;2022-07-06T13:05:52;3.00;;;2.90;;
2792;SDS011;1404;49.650;8.574;2022-07-06T13:08:18;3.33;;;3.03;;
2792;SDS011;1404;49.650;8.574;2022-07-06T13:10:44;2.80;;;2.40;;
2792;SDS011;1404;49.650;8.574;2022-07-06T13:13:10;5.67;;;2.90;;
2792;SDS011;1404;49.650;8.574;2022-07-06T13:15:36;3.40;;;2.43;;
2792;SDS011;1404;49.650;8.574;2022-07-06T13:18:02;3.00;;;2.67;;
2792;SDS011;1404;49.650;8.574;2022-07-06T13:20:28;10.17;;;2.80;;
2792;SDS011;1404;49.650;8.574;2022-07-06T13:22:54;2.60;;;2.40;;
2792;SDS011;1404;49.650;8.574;2022-07-06T13:25:20;2.60;;;2.40;;
2792;SDS011;1404;49.650;8.574;2022-07-06T13:27:46;3.37;;;2.73;;
2792;SDS011;1404;49.650;8.574;2022-07-06T13:30:12;6.33;;;3.00;;
2792;SDS011;1404;49.650;8.574;2022-07-06T13:32:39;5.37;;;2.40;;
2792;SDS011;1404;49.650;8.574;2022-07-06T13:35:05;2.00;;;1.90;;
2792;SDS011;1404;49.650;8.574;2022-07-06T13:37:31;6.23;;;2.27;;
2792;SDS011;1404;49.650;8.574;2022-07-06T13:39:58;2.30;;;2.10;;
2792;SDS011;1404;49.650;8.574;2022-07-06T13:42:24;6.03;;;2.10;;
2792;SDS011;1404;49.650;8.574;2022-07-06T13:44:50;5.27;;;2.40;;
2792;SDS011;1404;49.650;8.574;2022-07-06T13:47:16;2.50;;;1.33;;
2792;SDS011;1404;49.650;8.574;2022-07-06T13:49:42;1.77;;;1.67;;
2792;SDS011;1404;49.650;8.574;2022-07-06T13:52:12;3.73;;;1.90;;
2792;SDS011;1404;49.650;8.574;2022-07-06T13:54:38;2.73;;;1.90;;
2792;SDS011;1404;49.650;8.574;2022-07-06T13:57:04;3.13;;;2.30;;
2792;SDS011;1404;49.650;8.574;2022-07-06T13:59:31;3.40;;;2.30;;
2792;SDS011;1404;49.650;8.574;2022-07-06T14:01:58;2.00;;;1.53;;
2792;SDS011;1404;49.650;8.574;2022-07-06T14:04:24;2.37;;;1.80;;
2792;SDS011;1404;49.650;8.574;2022-07-06T14:06:50;2.43;;;1.90;;
2792;SDS011;1404;49.650;8.574;2022-07-06T14:09:16;3.40;;;2.27;;
2792;SDS011;1404;49.650;8.574;2022-07-06T14:11:42;5.53;;;1.93;;
2792;SDS011;1404;49.650;8.574;2022-07-06T14:14:08;3.30;;;1.60;;
2792;SDS011;1404;49.650;8.574;2022-07-06T14:16:34;9.77;;;2.23;;
2792;SDS011;1404;49.650;8.574;2022-07-06T14:19:00;4.00;;;2.10;;
2792;SDS011;1404;49.650;8.574;2022-07-06T14:21:27;1.77;;;1.67;;
2792;SDS011;1404;49.650;8.574;2022-07-06T14:23:53;3.63;;;1.90;;
2792;SDS011;1404;49.650;8.574;2022-07-06T14:26:19;2.90;;;2.37;;
2792;SDS011;1404;49.650;8.574;2022-07-06T14:28:45;1.40;;;1.30;;
2792;SDS011;1404;49.650;8.574;2022-07-06T14:31:11;3.00;;;1.90;;
2792;SDS011;1404;49.650;8.574;2022-07-06T14:33:38;3.63;;;1.90;;
2792;SDS011;1404;49.650;8.574;2022-07-06T14:36:04;1.97;;;1.40;;
2792;SDS011;1404;49.650;8.574;2022-07-06T14:38:30;1.70;;;1.37;;
2792;SDS011;1404;49.650;8.574;2022-07-06T14:40:56;2.17;;;1.43;;
2792;SDS011;1404;49.650;8.574;2022-07-06T14:43:22;2.60;;;1.60;;
2792;SDS011;1404;49.650;8.574;2022-07-06T14:45:49;2.63;;;1.50;;
2792;SDS011;1404;49.650;8.574;2022-07-06T14:48:15;2.17;;;1.50;;
2792;SDS011;1404;49.650;8.574;2022-07-06T14:50:42;5.83;;;2.20;;
2792;SDS011;1404;49.650;8.574;2022-07-06T14:53:08;4.60;;;2.13;;
2792;SDS011;1404;49.650;8.574;2022-07-06T14:55:34;7.27;;;2.10;;
2792;SDS011;1404;49.650;8.574;2022-07-06T14:58:00;1.63;;;1.53;;
2792;SDS011;1404;49.650;8.574;2022-07-06T15:00:26;2.00;;;1.80;;
2792;SDS011;1404;49.650;8.574;2022-07-06T15:02:52;2.40;;;2.20;;
2792;SDS011;1404;49.650;8.574;2022-07-06T15:05:18;1.83;;;1.63;;
2792;SDS011;1404;49.650;8.574;2022-07-06T15:07:45;3.83;;;1.87;;
2792;SDS011;1404;49.650;8.574;2022-07-06T15:10:11;1.63;;;1.53;;
2792;SDS011;1404;49.650;8.574;2022-07-06T15:12:37;2.20;;;1.60;;
2792;SDS011;1404;49.650;8.574;2022-07-06T15:15:03;6.63;;;1.70;;
2792;SDS011;1404;49.650;8.574;2022-07-06T15:17:30;6.13;;;1.10;;
2792;SDS011;1404;49.650;8.574;2022-07-06T15:19:56;5.40;;;1.27;;
2792;SDS011;1404;49.650;8.574;2022-07-06T15:22:22;6.20;;;1.50;;
2792;SDS011;1404;49.650;8.574;2022-07-06T15:24:48;2.30;;;1.40;;
2792;SDS011;1404;49.650;8.574;2022-07-06T15:27:14;4.40;;;1.50;;